createdAt,value
2022-08-05T00:01:56.969Z,100412.38
2022-08-05T00:05:27.485Z,100410.28
2022-08-05T00:08:35.470Z,100413.22
2022-08-05T00:11:48.268Z,100417.56
2022-08-05T00:14:52.038Z,100414.44
2022-08-05T00:17:54.660Z,100409.38
2022-08-05T00:20:57.339Z,100413.47
2022-08-05T00:24:10.640Z,100417.47
2022-08-05T00:27:13.890Z,100409.63
2022-08-05T00:30:19.167Z,100407.50
2022-08-05T00:34:55.924Z,100409.03
2022-08-05T00:37:11.392Z,100409.53
2022-08-05T00:40:17.965Z,100421.44
2022-08-05T00:43:47.093Z,100411.69
2022-08-05T00:46:54.208Z,100408.69
2022-08-05T00:50:05.239Z,100412.03
2022-08-05T00:53:16.015Z,100416.37
2022-08-05T00:56:30.651Z,100415.84
2022-08-05T00:59:42.077Z,100404.19
2022-08-05T01:02:47.092Z,100406.91
2022-08-05T01:05:54.336Z,100402.09
2022-08-05T01:08:57.621Z,100399.81
2022-08-05T01:12:18.209Z,100398.81
2022-08-05T01:15:36.141Z,100395.47
2022-08-05T01:18:42.692Z,100404.72
2022-08-05T01:21:55.690Z,100405.19
2022-08-05T01:25:07.165Z,100397.94
2022-08-05T01:28:12.953Z,100391.53
2022-08-05T01:31:22.284Z,100399.81
2022-08-05T01:34:30.876Z,100395.94
2022-08-05T01:37:47.899Z,100400.84
2022-08-05T01:40:52.925Z,100397.59
2022-08-05T01:43:56.472Z,100400.34
2022-08-05T01:47:00.993Z,100397.81
2022-08-05T01:50:05.972Z,100391.88
2022-08-05T01:53:12.136Z,100407.47
2022-08-05T01:58:11.967Z,100393.41
2022-08-05T01:59:40.869Z,100404.31
2022-08-05T02:02:56.319Z,100399.50
2022-08-05T02:06:33.309Z,100407.50
2022-08-05T02:09:26.260Z,100402.34
2022-08-05T02:12:43.208Z,100404.25
2022-08-05T02:15:51.072Z,100410.63
2022-08-05T02:18:59.828Z,100409.38
2022-08-05T02:22:17.471Z,100410.94
2022-08-05T02:25:49.085Z,100408.97
2022-08-05T02:28:54.955Z,100408.53
2022-08-05T02:31:58.136Z,100404.97
2022-08-05T02:35:15.209Z,100404.66
2022-08-05T02:38:26.917Z,100396.56
2022-08-05T02:41:43.063Z,100400.50
2022-08-05T02:44:58.793Z,100399.75
2022-08-05T02:48:12.060Z,100399.75
2022-08-05T02:51:15.858Z,100400.69
2022-08-05T02:54:35.999Z,100401.16
2022-08-05T02:58:11.206Z,100409.87
2022-08-05T03:01:02.833Z,100407.38
2022-08-05T03:04:13.991Z,100398.72
2022-08-05T03:07:40.685Z,100393.66
2022-08-05T03:10:44.245Z,100392.03
2022-08-05T03:14:07.927Z,100384.06
2022-08-05T03:17:10.743Z,100388.88
2022-08-05T03:20:13.455Z,100382.84
2022-08-05T03:23:16.642Z,100383.59
2022-08-05T03:26:31.367Z,100385.81
2022-08-05T03:29:45.424Z,100386.03
2022-08-05T03:32:58.374Z,100387.41
2022-08-05T03:36:01.357Z,100387.19
2022-08-05T03:39:20.332Z,100376.31
2022-08-05T03:42:32.329Z,100380.75
2022-08-05T03:45:58.291Z,100385.41
2022-08-05T03:49:01.841Z,100388.56
2022-08-05T03:52:48.514Z,100386.34
2022-08-05T03:56:05.809Z,100389.37
2022-08-05T03:59:06.334Z,100392.38
2022-08-05T04:02:14.858Z,100388.69
2022-08-05T04:05:21.064Z,100393.84
2022-08-05T04:08:34.595Z,100385.31
2022-08-05T04:11:47.403Z,100397.66
2022-08-05T04:14:54.132Z,100393.13
2022-08-05T04:18:09.522Z,100392.66
2022-08-05T04:21:12.992Z,100395.09
2022-08-05T04:24:35.641Z,100399.09
2022-08-05T04:27:43.849Z,100398.44
2022-08-05T04:31:01.346Z,100394.41
2022-08-05T04:34:29.555Z,100395.66
2022-08-05T04:38:02.724Z,100394.38
2022-08-05T04:40:50.770Z,100389.47
2022-08-05T04:43:53.604Z,100392.38
2022-08-05T04:46:58.483Z,100395.44
2022-08-05T04:50:10.846Z,100396.56
2022-08-05T04:53:15.499Z,100395.94
2022-08-05T04:56:34.511Z,100398.19
2022-08-05T04:59:40.855Z,100398.19
2022-08-05T05:02:43.674Z,100403.78
2022-08-05T05:06:39.867Z,100395.75
2022-08-05T05:09:10.252Z,100405.19
2022-08-05T05:12:16.602Z,100398.31
2022-08-05T05:15:57.927Z,100398.03
2022-08-05T05:19:02.517Z,100392.81
2022-08-05T05:22:22.978Z,100388.59
2022-08-05T05:25:40.373Z,100384.50
2022-08-05T05:28:45.128Z,100385.53
2022-08-05T05:31:47.691Z,100390.84
2022-08-05T05:34:52.504Z,100385.59
2022-08-05T05:37:59.783Z,100387.47
2022-08-05T05:41:03.269Z,100382.84
2022-08-05T05:44:37.396Z,100385.34
2022-08-05T05:48:06.907Z,100374.44
2022-08-05T05:50:54.983Z,100390.25
2022-08-05T05:53:59.964Z,100382.97
2022-08-05T05:57:02.337Z,100385.41
2022-08-05T06:00:06.815Z,100389.50
2022-08-05T06:03:28.383Z,100380.28
2022-08-05T06:06:36.833Z,100374.56
2022-08-05T06:10:00.149Z,100385.03
2022-08-05T06:13:06.776Z,100379.72
2022-08-05T06:16:30.334Z,100385.50
2022-08-05T06:19:35.001Z,100388.12
2022-08-05T06:22:37.879Z,100385.38
2022-08-05T06:26:12.583Z,100384.22
2022-08-05T06:29:23.692Z,100382.53
2022-08-05T06:32:28.835Z,100379.72
2022-08-05T06:36:03.639Z,100383.25
2022-08-05T06:38:54.831Z,100377.03
2022-08-05T06:41:58.954Z,100385.81
2022-08-05T06:45:05.237Z,100384.31
2022-08-05T06:48:37.219Z,100381.75
2022-08-05T06:51:31.825Z,100377.94
2022-08-05T06:54:34.158Z,100377.22
2022-08-05T06:57:57.510Z,100380.97
2022-08-05T07:01:01.840Z,100376.91
2022-08-05T07:04:04.640Z,100385.53
2022-08-05T07:07:08.039Z,100383.50
2022-08-05T07:10:16.293Z,100382.22
2022-08-05T07:13:57.053Z,100380.03
2022-08-05T07:18:02.125Z,100382.63
2022-08-05T07:20:33.388Z,100386.97
2022-08-05T07:23:37.467Z,100381.44
2022-08-05T07:26:51.499Z,100379.19
2022-08-05T07:30:27.356Z,100383.41
2022-08-05T07:33:17.315Z,100373.00
2022-08-05T07:36:21.418Z,100368.44
2022-08-05T07:39:24.465Z,100367.22
2022-08-05T07:42:47.017Z,100366.16
2022-08-05T07:45:57.136Z,100358.34
2022-08-05T07:49:06.017Z,100363.97
2022-08-05T07:52:10.213Z,100352.81
2022-08-05T07:55:44.464Z,100359.59
2022-08-05T07:58:57.626Z,100348.16
2022-08-05T08:01:58.591Z,100363.53
2022-08-05T08:05:01.208Z,100354.19
2022-08-05T08:08:03.771Z,100360.31
2022-08-05T08:11:15.987Z,100349.00
2022-08-05T08:14:19.171Z,100349.19
2022-08-05T08:17:22.535Z,100345.25
2022-08-05T08:21:00.220Z,100353.44
2022-08-05T08:24:02.764Z,100342.16
2022-08-05T08:27:07.518Z,100347.28
2022-08-05T08:30:19.002Z,100337.41
2022-08-05T08:33:22.687Z,100337.72
2022-08-05T08:36:37.625Z,100336.97
2022-08-05T08:39:49.776Z,100343.00
2022-08-05T08:42:53.191Z,100338.84
2022-08-05T08:45:59.173Z,100341.00
2022-08-05T08:50:03.964Z,100332.66
2022-08-05T08:52:29.498Z,100326.66
2022-08-05T08:56:04.560Z,100332.66
2022-08-05T08:58:59.325Z,100327.16
2022-08-05T09:02:05.882Z,100324.22
2022-08-05T09:05:17.944Z,100321.13
2022-08-05T09:08:27.278Z,100322.34
2022-08-05T09:11:50.770Z,100321.91
2022-08-05T09:15:04.860Z,100318.87
2022-08-05T09:18:09.494Z,100308.19
2022-08-05T09:21:21.151Z,100307.47
2022-08-05T09:24:37.624Z,100299.69
2022-08-05T09:28:04.419Z,100288.78
2022-08-05T09:31:22.926Z,100288.59
2022-08-05T09:34:45.642Z,100277.09
2022-08-05T09:38:18.452Z,100274.75
2022-08-05T09:41:16.192Z,100265.88
2022-08-05T09:44:32.617Z,100261.75
2022-08-05T09:47:55.527Z,100262.28
2022-08-05T09:51:01.747Z,100259.12
2022-08-05T09:54:07.693Z,100265.66
2022-08-05T09:57:23.301Z,100261.44
2022-08-05T10:00:26.749Z,100259.31
2022-08-05T10:03:56.960Z,100247.72
2022-08-05T10:06:58.910Z,100251.84
2022-08-05T10:10:14.379Z,100250.75
2022-08-05T10:13:27.023Z,100247.84
2022-08-05T10:16:41.608Z,100241.63
2022-08-05T10:20:04.549Z,100243.00
2022-08-05T10:23:34.224Z,100236.38
2022-08-05T10:26:36.495Z,100236.59
2022-08-05T10:30:41.169Z,100229.63
2022-08-05T10:33:14.909Z,100227.47
2022-08-05T10:36:17.927Z,100220.44
2022-08-05T10:39:59.476Z,100213.94
2022-08-05T10:42:54.096Z,100209.53
2022-08-05T10:46:06.169Z,100209.34
2022-08-05T10:49:10.491Z,100215.31
2022-08-05T10:52:58.738Z,100219.44
2022-08-05T10:56:03.499Z,100200.13
2022-08-05T11:00:02.413Z,100201.53
2022-08-05T11:03:23.063Z,100197.44
2022-08-05T11:06:30.908Z,100193.81
2022-08-05T11:09:46.648Z,100190.66
2022-08-05T11:12:50.710Z,100186.50
2022-08-05T11:16:17.827Z,100189.81
2022-08-05T11:20:16.683Z,100186.63
2022-08-05T11:22:54.086Z,100177.66
2022-08-05T11:26:10.288Z,100187.97
2022-08-05T11:29:32.919Z,100183.63
2022-08-05T11:32:35.251Z,100177.44
2022-08-05T11:36:04.419Z,100180.66
2022-08-05T11:39:12.154Z,100171.44
2022-08-05T11:42:18.239Z,100173.00
2022-08-05T11:45:27.071Z,100167.28
2022-08-05T11:48:43.564Z,100168.06
2022-08-05T11:51:49.362Z,100172.31
2022-08-05T11:54:54.916Z,100174.12
2022-08-05T11:58:09.811Z,100176.50
2022-08-05T12:01:15.633Z,100175.28
2022-08-05T12:04:22.343Z,100174.00
2022-08-05T12:08:08.931Z,100159.50
2022-08-05T12:10:48.713Z,100171.19
2022-08-05T12:13:59.601Z,100159.25
2022-08-05T12:18:03.050Z,100169.31
2022-08-05T12:20:39.101Z,100162.97
2022-08-05T12:23:51.516Z,100158.69
2022-08-05T12:26:54.206Z,100154.12
2022-08-05T12:30:00.464Z,100141.78
2022-08-05T12:33:07.138Z,100153.84
2022-08-05T12:36:29.477Z,100156.03
2022-08-05T12:39:37.118Z,100151.94
2022-08-05T12:42:41.263Z,100146.66
2022-08-05T12:45:56.400Z,100152.69
2022-08-05T12:49:13.815Z,100147.34
2022-08-05T12:52:23.819Z,100147.78
2022-08-05T12:55:32.958Z,100146.50
2022-08-05T12:58:52.625Z,100135.28
2022-08-05T13:02:27.246Z,100133.28
2022-08-05T13:05:37.644Z,100127.97
2022-08-05T13:08:40.507Z,100131.87
2022-08-05T13:12:03.021Z,100122.56
2022-08-05T13:15:13.719Z,100121.78
2022-08-05T13:18:20.792Z,100118.91
2022-08-05T13:21:28.426Z,100109.34
2022-08-05T13:24:51.346Z,100109.25
2022-08-05T13:28:00.423Z,100100.84
2022-08-05T13:31:11.118Z,100101.47
2022-08-05T13:34:21.985Z,100096.72
2022-08-05T13:37:34.836Z,100098.31
2022-08-05T13:40:51.754Z,100089.44
2022-08-05T13:43:55.415Z,100088.06
2022-08-05T13:47:04.822Z,100077.63
2022-08-05T13:50:16.222Z,100082.47
2022-08-05T13:53:19.360Z,100071.19
2022-08-05T13:56:21.877Z,100076.75
2022-08-05T13:59:27.547Z,100078.91
2022-08-05T14:02:33.256Z,100071.00
2022-08-05T14:06:24.444Z,100070.00
2022-08-05T14:08:59.498Z,100065.31
2022-08-05T14:12:17.281Z,100060.87
2022-08-05T14:16:06.971Z,100056.75
2022-08-05T14:18:42.985Z,100050.53
2022-08-05T14:22:09.063Z,100060.66
2022-08-05T14:25:22.005Z,100044.78
2022-08-05T14:28:27.151Z,100042.31
2022-08-05T14:32:02.857Z,100037.63
2022-08-05T14:34:53.383Z,100040.37
2022-08-05T14:37:57.203Z,100041.88
2022-08-05T14:41:06.861Z,100042.12
2022-08-05T14:44:20.645Z,100039.75
2022-08-05T14:48:03.644Z,100041.78
2022-08-05T14:50:47.384Z,100041.53
2022-08-05T14:54:26.565Z,100032.16
2022-08-05T14:57:13.997Z,100033.34
2022-08-05T15:00:17.284Z,100029.72
2022-08-05T15:03:22.914Z,100031.47
2022-08-05T15:06:27.914Z,100021.13
2022-08-05T15:09:50.504Z,100021.09
2022-08-05T15:13:01.208Z,100023.22
2022-08-05T15:16:06.512Z,100018.97
2022-08-05T15:19:14.458Z,100013.41
2022-08-05T15:22:27.789Z,100020.25
2022-08-05T15:25:51.485Z,100012.53
2022-08-05T15:28:53.407Z,100002.25
2022-08-05T15:31:55.848Z,100005.41
2022-08-05T15:34:58.441Z,100000.78
2022-08-05T15:38:32.774Z,99998.97
2022-08-05T15:41:24.738Z,99996.84
2022-08-05T15:44:46.880Z,99990.84
2022-08-05T15:47:49.495Z,99985.50
2022-08-05T15:50:57.322Z,99985.31
2022-08-05T15:54:00.127Z,99979.50
2022-08-05T15:57:03.428Z,99981.41
2022-08-05T16:00:10.737Z,99981.84
2022-08-05T16:03:14.315Z,99987.31
2022-08-05T16:06:20.215Z,99981.50
2022-08-05T16:09:24.127Z,99979.25
2022-08-05T16:12:27.092Z,99980.78
2022-08-05T16:15:32.621Z,99974.81
2022-08-05T16:18:51.899Z,99979.19
2022-08-05T16:22:00.419Z,99983.38
2022-08-05T16:25:07.945Z,99985.25
2022-08-05T16:28:13.643Z,99976.50
2022-08-05T16:31:18.057Z,99982.81
2022-08-05T16:34:22.487Z,99991.97
2022-08-05T16:38:02.516Z,99980.53
2022-08-05T16:40:55.497Z,99982.84
2022-08-05T16:44:02.376Z,99973.47
2022-08-05T16:47:05.379Z,99976.63
2022-08-05T16:50:29.546Z,99982.66
2022-08-05T16:54:06.104Z,99980.59
2022-08-05T16:57:26.758Z,99976.59
2022-08-05T17:00:49.492Z,99969.31
2022-08-05T17:03:52.787Z,99972.38
2022-08-05T17:07:00.100Z,99970.22
2022-08-05T17:10:04.134Z,99972.44
2022-08-05T17:13:17.128Z,99978.66
2022-08-05T17:16:32.987Z,99973.44
2022-08-05T17:19:36.384Z,99974.47
2022-08-05T17:22:38.716Z,99978.34
2022-08-05T17:25:41.955Z,99986.72
2022-08-05T17:28:44.835Z,99994.09
2022-08-05T17:31:58.447Z,99984.00
2022-08-05T17:35:01.699Z,99996.44
2022-08-05T17:38:08.143Z,99997.78
2022-08-05T17:41:22.961Z,99998.75
2022-08-05T17:44:33.346Z,99995.06
2022-08-05T17:47:35.757Z,99992.97
2022-08-05T17:50:39.413Z,99989.00
2022-08-05T17:53:42.423Z,99988.41
2022-08-05T17:56:45.458Z,99996.25
2022-08-05T18:00:05.232Z,99987.22
2022-08-05T18:03:08.732Z,99997.91
2022-08-05T18:06:14.868Z,99997.91
2022-08-05T18:09:18.040Z,100000.00
2022-08-05T18:12:22.234Z,99994.63
2022-08-05T18:15:27.671Z,100002.25
2022-08-05T18:18:34.025Z,99999.16
2022-08-05T18:22:08.916Z,99990.88
2022-08-05T18:25:05.692Z,99993.53
2022-08-05T18:28:09.542Z,99990.59
2022-08-05T18:31:11.889Z,99990.97
2022-08-05T18:34:14.813Z,100001.25
2022-08-05T18:37:34.336Z,100001.47
2022-08-05T18:41:55.276Z,100014.88
2022-08-05T18:44:06.270Z,100009.06
2022-08-05T18:47:10.500Z,100017.63
2022-08-05T18:50:45.200Z,100018.19
2022-08-05T18:53:50.413Z,100024.72
2022-08-05T18:56:53.041Z,100015.22
2022-08-05T19:00:03.275Z,100022.44
2022-08-05T19:03:06.625Z,100024.28
2022-08-05T19:06:21.761Z,100024.75
2022-08-05T19:09:25.041Z,100024.25
2022-08-05T19:12:29.768Z,100022.44
2022-08-05T19:15:58.659Z,100027.44
2022-08-05T19:18:56.775Z,100029.25
2022-08-05T19:21:59.472Z,100030.94
2022-08-05T19:25:02.545Z,100030.94
2022-08-05T19:28:05.400Z,100029.56
2022-08-05T19:31:08.431Z,100032.88
2022-08-05T19:34:10.772Z,100037.03
2022-08-05T19:37:14.228Z,100029.53
2022-08-05T19:40:16.775Z,100042.84
2022-08-05T19:44:04.159Z,100043.31
2022-08-05T19:46:43.752Z,100040.16
2022-08-05T19:49:48.187Z,100038.16
2022-08-05T19:52:50.484Z,100031.44
2022-08-05T19:56:15.368Z,100040.78
2022-08-05T19:59:54.856Z,100038.06
2022-08-05T20:02:38.514Z,100045.22
2022-08-05T20:05:43.337Z,100047.44
2022-08-05T20:08:53.183Z,100048.91
2022-08-05T20:11:56.422Z,100044.34
2022-08-05T20:14:58.935Z,100046.00
2022-08-05T20:18:02.020Z,100050.28
2022-08-05T20:21:07.034Z,100049.59
2022-08-05T20:24:11.432Z,100054.37
2022-08-05T20:27:13.996Z,100056.34
2022-08-05T20:30:19.722Z,100058.09
2022-08-05T20:33:22.297Z,100071.84
2022-08-05T20:36:25.907Z,100064.28
2022-08-05T20:39:36.675Z,100066.66
2022-08-05T20:42:39.558Z,100076.91
2022-08-05T20:45:55.781Z,100073.78
2022-08-05T20:48:59.951Z,100074.91
2022-08-05T20:52:05.023Z,100070.97
2022-08-05T20:55:55.248Z,100070.09
2022-08-05T20:58:32.788Z,100069.03
2022-08-05T21:01:37.255Z,100078.16
2022-08-05T21:04:40.691Z,100078.06
2022-08-05T21:07:50.418Z,100079.34
2022-08-05T21:10:55.562Z,100078.97
2022-08-05T21:14:01.378Z,100084.03
2022-08-05T21:17:05.490Z,100087.25
2022-08-05T21:20:10.210Z,100080.69
2022-08-05T21:23:13.298Z,100084.37
2022-08-05T21:26:16.892Z,100088.63
2022-08-05T21:29:20.104Z,100085.72
2022-08-05T21:32:28.085Z,100093.88
2022-08-05T21:35:43.792Z,100091.78
2022-08-05T21:38:53.673Z,100097.78
2022-08-05T21:42:01.937Z,100094.03
2022-08-05T21:45:05.001Z,100091.97
2022-08-05T21:48:07.984Z,100098.59
2022-08-05T21:51:25.065Z,100101.53
2022-08-05T21:54:33.211Z,100097.19
2022-08-05T21:57:42.729Z,100108.41
2022-08-05T22:00:50.909Z,100103.09
2022-08-05T22:03:54.197Z,100105.06
2022-08-05T22:06:57.062Z,100102.94
2022-08-05T22:10:00.150Z,100100.31
2022-08-05T22:13:09.313Z,100114.72
2022-08-05T22:16:41.199Z,100117.28
2022-08-05T22:19:57.413Z,100112.00
2022-08-05T22:24:02.403Z,100108.50
2022-08-05T22:27:10.794Z,100111.44
2022-08-05T22:30:15.063Z,100109.50
2022-08-05T22:33:19.584Z,100109.09
2022-08-05T22:36:42.164Z,100113.56
2022-08-05T22:39:50.312Z,100107.84
2022-08-05T22:42:58.262Z,100112.41
2022-08-05T22:46:02.577Z,100110.75
2022-08-05T22:49:23.669Z,100110.75
2022-08-05T22:52:34.490Z,100104.34
2022-08-05T22:55:56.655Z,100102.22
2022-08-05T22:59:02.920Z,100099.13
2022-08-05T23:02:07.971Z,100103.75
2022-08-05T23:05:10.420Z,100108.22
2022-08-05T23:08:13.012Z,100101.78
2022-08-05T23:11:16.578Z,100100.38
2022-08-05T23:14:22.469Z,100094.91
2022-08-05T23:17:34.541Z,100097.59
2022-08-05T23:20:40.285Z,100098.69
2022-08-05T23:23:45.580Z,100100.91
2022-08-05T23:26:48.128Z,100103.81
2022-08-05T23:29:50.763Z,100107.56
2022-08-05T23:32:53.587Z,100103.31
2022-08-05T23:35:56.601Z,100100.25
2022-08-05T23:38:59.279Z,100101.50
2022-08-05T23:42:01.735Z,100094.91
2022-08-05T23:45:14.082Z,100096.28
2022-08-05T23:48:17.883Z,100093.19
2022-08-05T23:51:22.371Z,100100.84
2022-08-05T23:54:26.737Z,100096.50
2022-08-05T23:57:33.375Z,100097.63
